Griswoldville, CT

12:24 AM EST on December 08, 2016 (GMT -0500)
HADS | | Change Station

Elev 205 ft 41.68 °N, 72.68 °W | Updated 469 days ago

Mostly Cloudy
Mostly Cloudy
32 °F
Feels Like 32 °F
N
2
Wind Variable Wind from WSW
Gusts mph

Today
High -- | Low -- °F
--% Chance of Precip.
Yesterday
High -- | Low -- °F
Precip. -- in
Pressure 30.01 in
Visibility 3.0 miles
Clouds Clear
Dew Point 29 °F
Humidity 90%
Rainfall in
Snow Depth Not available.
7:05 AM 4:20 PM
First Quarter, 59% visible
METAR KHFD 080453Z 00000KT 3SM BR CLR 02/02 A3001 RMK AO2 SLP161 T00220017 400610011
Pressure 30.01 in
Visibility 3.0 miles
Clouds Clear
Dew Point 29 °F
Humidity 90%
Rainfall in
Snow Depth Not available.
7:05 AM 4:20 PM
First Quarter, 59% visible
METAR KHFD 080453Z 00000KT 3SM BR CLR 02/02 A3001 RMK AO2 SLP161 T00220017 400610011

10-Day Weather Forecast

Almanac

Astronomy

Dec. 08, 2016 Rise Set
Actual Time
Civil Twilight
Nautical Twilight
Astronomical Twilight
Moon
Length of Visible Light
Length of Day
Tomorrow will be .
, % of the Moon is Illuminated

Today's Extremes

State Highs State Lows

Community

WunderPhotos

Upload Photos

1,956,259 photos uploaded!

WunderBlog® & News

Nearby

Air Quality

  Air Quality AQ Index Pollutant
Not available.

Snow Depth

Station Depth Elevation

Earthquake Activity

City Distance Mag. Time & Date
Minimum magnitude displayed is 2.5.

Coastal Water Temperatures

Place Temperature

Stations

Nearby Weather Stations

Station Location Temp. Windchill Dew Point Humidity Wind Precip. Elev Updated Type
                   

Watches & Warnings

There are currently no watches in effect.